Airfield :
LOGIN :

Register | Disclaimer

   EN    FR    IT 

 










Legend :    VFR   Marginal VFR   IFR   Intensive IFR   Very Intensive IFR
Visi :
Ceiling :
>= 8 km
>= 3000ft
5 to 8 km
1000 to 3000 ft
1500m to 5 km
500 to 1000 ft
800 to 1500m
200 to 500 ft
< 800m
< 200 ft
Symbols :   Thunderstorms  Fog  Heavy snow  Heavy precipitations  Wind > 20 kt
SIGMETs :     Misc.  Thunderstorms  Icing  Turbulence  Mountain Waves  Volcanic Ashes







- Airport Elevation : 776 ft
- IATA code : RMS


ETAR - Ramstein Air Base

CURRENT METAR :
  • 191010Z 25003KT 9999 -RA OVC037 06/06 A3016 RMK AO2A RAB10 SLP226 $

EXPIRED METARs :
  • 190956Z 00000KT 9999 OVC036 06/06 A3016 RMK AO2A RAB14E25 SLP226 P0000 $
  • 190924Z 00000KT 9999 -RA OVC034 05/05 A3015 RMK AO2A RAB14 SLP223 $
  • 190856Z AUTO 26003KT 9999 BKN030 OVC038 05/05 A3014 RMK AO2 RAB12E26RAB29E31 SLP220 P0000 60000 T00480048 52023 $
  • 190852Z AUTO 26003KT 9999 BKN028 OVC039 05/05 A3014 RMK AO2 RAB12E26RAB29E31 CIG 028V039 SLP220 $
  • 190826Z 00000KT 9999 BKN040 05/04 A3014 RMK AO2A RAB12E26 SLP217 $
  • 190812Z 28003KT 9999 -RA BKN042 04/03 A3013 RMK AO2A RAB12 SLP215 $
  • 190756Z 27003KT 9999 BKN045 04/03 A3013 RMK AO2A DZB0652E02 SLP216 P0000 $

TAF TAF ETAR
Valid from the 19 at 10:00 until the 20 at 16:00 UTC


191004Z 1910/2016 24009KT 9999 OVC020 QNH3013INS
TEMPO 1910/1912 9000 -DZ
BECMG 1916/1917 26009KT 9999 SCT030 QNH3016INS
TEMPO 2000/2003 8000 BR
BECMG 2006/2007 VRB06KT 9999 BKN020 QNH3021INS
TEMPO 2010/2012 8000 -SHRA TX09/1914Z TN01/2005Z
No reported NOTAMs for that airfield.



MET'MAP, your aeronautical weather chart ! - Copyright ORBIFLY December 2007 - Disclaimer

ORBIFLY MET'MAP TEAM :

Programming & Development : Alexandra Zaïnal
Concept & Development : Baudouin d'Aumeries
Co-Development & Prog : Marc-Olivier Méhu
Technical & hardware support : Manuel Goepfert

Contact : metmap@orbifly.com




SOURCES & CREDITS :

   NOAA